Time;durP1;ratioP1;P1;durP2;ratioP2;P2;SDS_P1;SDS_P2;PMS_P1;PMS_P2;Temp;Humidity;BMP_temperature;BMP_pressure;BME280_temperature;BME280_humidity;BME280_pressure;Samples;Min_cycle;Max_cycle;Signal;HPM_P1;HPM_P2
2021/01/07 00:04:31;;;;;;;8.57;6.05;;;;;;;1.47;77.38;97142.56;13143257;22;20438;-76
2021/01/07 00:09:51;;;;;;;6.70;4.85;;;;;;;1.48;77.46;97146.03;13119852;22;20026;-76
2021/01/07 00:15:11;;;;;;;7.22;5.35;;;;;;;1.34;78.15;97146.19;13141937;22;20484;-76
2021/01/07 00:20:32;;;;;;;6.43;4.50;;;;;;;1.22;77.92;97147.09;13141474;22;20030;-76
2021/01/07 00:25:54;;;;;;;6.85;5.10;;;;;;;1.24;77.95;97142.50;13118251;22;20026;-76
2021/01/07 00:31:14;;;;;;;5.93;4.40;;;;;;;1.19;77.56;97154.41;13141203;22;20089;-76
2021/01/07 00:36:34;;;;;;;7.18;4.97;;;;;;;1.19;78.21;97151.66;13140947;22;20027;-76
2021/01/07 00:41:58;;;;;;;5.78;4.68;;;;;;;1.09;78.57;97164.47;13119130;22;20026;-76
2021/01/07 00:47:18;;;;;;;;;;;;;;;1.11;77.90;97162.63;13118521;22;20027;-76
2021/01/07 00:52:40;;;;;;;6.07;4.45;;;;;;;1.13;78.06;97159.34;13142054;22;19914;-76
2021/01/07 00:58:02;;;;;;;6.07;4.20;;;;;;;1.09;78.59;97159.69;13130595;22;20027;-76
2021/01/07 01:03:22;;;;;;;5.32;4.18;;;;;;;1.03;78.80;97150.13;13119999;22;20314;-76
2021/01/07 01:08:42;;;;;;;5.45;3.78;;;;;;;0.90;78.28;97158.53;13117840;22;20057;-76
2021/01/07 01:14:02;;;;;;;5.47;3.40;;;;;;;0.87;78.89;97160.34;13096437;22;20030;-76
2021/01/07 01:19:22;;;;;;;4.93;3.97;;;;;;;0.83;79.10;97171.69;13096336;22;20046;-76
2021/01/07 01:24:42;;;;;;;5.40;3.45;;;;;;;0.81;79.44;97163.25;13141641;22;20026;-76
2021/01/07 01:30:07;;;;;;;4.78;3.45;;;;;;;0.84;78.45;97167.66;13118263;22;20054;-76
2021/01/07 01:35:26;;;;;;;4.03;3.30;;;;;;;0.84;78.23;97156.66;13140161;22;20080;-76
2021/01/07 01:40:46;;;;;;;4.47;3.20;;;;;;;0.85;78.70;97160.88;13138579;22;20033;-76
2021/01/07 01:46:06;;;;;;;4.55;2.80;;;;;;;0.77;79.29;97162.88;13141288;22;20350;-76
2021/01/07 01:51:27;;;;;;;4.05;3.40;;;;;;;0.73;78.93;97159.72;13119905;22;20456;-76
2021/01/07 01:56:47;;;;;;;5.07;3.92;;;;;;;0.75;79.09;97165.41;13138466;22;20076;-76
2021/01/07 02:02:11;;;;;;;4.72;3.20;;;;;;;0.78;79.08;97164.34;13095292;22;20102;-76
2021/01/07 02:07:31;;;;;;;4.75;3.50;;;;;;;0.79;79.01;97162.34;13139801;22;20030;-76
2021/01/07 02:12:51;;;;;;;4.55;3.47;;;;;;;0.83;78.81;97163.44;13099270;22;20112;-76
2021/01/07 02:18:11;;;;;;;4.40;3.30;;;;;;;0.88;78.71;97166.59;13120257;22;20099;-76
2021/01/07 02:23:31;;;;;;;4.78;3.80;;;;;;;0.94;78.66;97156.16;13121827;22;20092;-76
2021/01/07 02:28:50;;;;;;;4.90;3.90;;;;;;;0.96;78.60;97151.56;13145150;22;20050;-76
2021/01/07 02:34:10;;;;;;;5.57;3.90;;;;;;;0.95;79.05;97152.84;13121644;22;20544;-76
2021/01/07 02:39:30;;;;;;;7.28;3.92;;;;;;;0.96;78.78;97150.84;13143887;22;20026;-76
2021/01/07 02:44:49;;;;;;;6.43;5.10;;;;;;;0.98;78.63;97148.31;13098465;22;20480;-76
2021/01/07 02:50:10;;;;;;;5.72;4.28;;;;;;;0.90;78.84;97148.28;13143313;22;20027;-76
2021/01/07 02:55:31;;;;;;;6.05;4.57;;;;;;;0.89;79.21;97154.31;13120917;22;20030;-76
2021/01/07 03:00:51;;;;;;;5.05;3.72;;;;;;;0.92;78.48;97155.97;13099147;22;20026;-76
2021/01/07 03:06:11;;;;;;;4.55;3.40;;;;;;;0.86;78.78;97154.09;13144106;22;20445;-76
2021/01/07 03:11:31;;;;;;;4.68;3.33;;;;;;;0.82;78.76;97150.97;13119988;22;20445;-76
2021/01/07 03:16:50;;;;;;;3.97;3.25;;;;;;;0.87;78.45;97149.38;13120562;22;20027;-76
2021/01/07 03:22:10;;;;;;;4.20;2.88;;;;;;;0.96;78.48;97151.56;13120399;22;20104;-76
2021/01/07 03:27:30;;;;;;;5.10;3.10;;;;;;;1.05;78.95;97150.31;13142508;22;20054;-76
2021/01/07 03:32:50;;;;;;;5.40;3.60;;;;;;;1.01;77.91;97152.69;13142530;22;20031;-76
2021/01/07 03:38:10;;;;;;;4.40;3.10;;;;;;;1.01;78.31;97136.22;13142259;22;20027;-77
2021/01/07 03:43:29;;;;;;;4.72;3.55;;;;;;;0.90;78.87;97153.78;13119135;22;20344;-76
2021/01/07 03:48:49;;;;;;;5.60;4.05;;;;;;;0.76;79.17;97144.91;13142130;22;20030;-76
2021/01/07 03:54:09;;;;;;;6.60;3.92;;;;;;;0.68;79.17;97148.91;13143189;22;20153;-76
2021/01/07 03:59:29;;;;;;;6.38;3.80;;;;;;;0.58;79.14;97148.69;13127363;22;20373;-76
2021/01/07 04:04:49;;;;;;;4.70;3.75;;;;;;;0.63;79.11;97158.78;13120025;22;20047;-76
2021/01/07 04:10:09;;;;;;;5.53;4.05;;;;;;;0.63;78.94;97158.78;13118438;22;20034;-76
2021/01/07 04:15:28;;;;;;;5.75;4.10;;;;;;;0.63;79.23;97153.28;13119180;22;20107;-76
2021/01/07 04:20:48;;;;;;;5.93;4.90;;;;;;;0.59;79.14;97158.41;13097589;22;20046;-76
2021/01/07 04:26:08;;;;;;;7.93;5.18;;;;;;;0.67;78.99;97163.91;13140757;22;20030;-77
2021/01/07 04:31:28;;;;;;;7.15;5.05;;;;;;;0.67;79.05;97159.16;13142653;22;20057;-76
2021/01/07 04:36:48;;;;;;;10.23;5.63;;;;;;;0.71;78.98;97167.78;13118086;22;20026;-76
2021/01/07 04:42:08;;;;;;;7.65;5.10;;;;;;;0.77;79.33;97170.38;13140990;22;20034;-76
2021/01/07 04:47:27;;;;;;;8.43;5.18;;;;;;;0.76;78.73;97166.88;13119044;22;20080;-76
2021/01/07 04:52:49;;;;;;;5.88;4.72;;;;;;;0.78;79.00;97169.09;13098137;22;20465;-77
2021/01/07 04:58:09;;;;;;;7.07;4.97;;;;;;;0.75;79.13;97159.91;13108344;22;20033;-76
2021/01/07 05:03:32;;;;;;;6.53;4.68;;;;;;;0.81;79.07;97152.25;13072008;22;20026;-77
2021/01/07 05:09:05;;;;;;;6.32;4.63;;;;;;;0.84;78.88;97156.66;13117293;22;20029;-76
2021/01/07 05:14:25;;;;;;;6.88;4.95;;;;;;;0.81;78.99;97166.00;13117336;22;20511;-76
2021/01/07 05:19:45;;;;;;;9.02;4.88;;;;;;;0.85;79.19;97158.13;13095267;22;20046;-76
2021/01/07 05:25:15;;;;;;;7.00;5.30;;;;;;;0.84;78.91;97167.66;13095303;22;20465;-76
2021/01/07 05:30:36;;;;;;;7.78;5.30;;;;;;;0.78;78.94;97172.59;13116485;22;20160;-76
2021/01/07 05:35:55;;;;;;;10.98;5.53;;;;;;;0.85;79.32;97168.38;13116883;22;20102;-76
2021/01/07 05:41:15;;;;;;;10.27;5.22;;;;;;;0.83;79.23;97170.94;13094818;22;20034;-77
2021/01/07 05:46:35;;;;;;;7.75;5.25;;;;;;;0.81;79.07;97174.25;13140983;22;20054;-76
2021/01/07 05:51:55;;;;;;;9.63;6.30;;;;;;;0.78;79.14;97163.63;13141004;22;20034;-76
2021/01/07 05:57:14;;;;;;;8.57;5.25;;;;;;;0.86;78.96;97158.88;13107636;22;20026;-76
2021/01/07 06:02:41;;;;;;;8.52;5.20;;;;;;;0.96;78.75;97157.06;13118093;22;20113;-77
2021/01/07 06:08:01;;;;;;;5.82;4.70;;;;;;;1.00;78.97;97162.22;13140361;22;20027;-77
2021/01/07 06:13:21;;;;;;;6.95;4.97;;;;;;;0.99;78.66;97171.75;13073653;22;20031;-76
2021/01/07 06:18:41;;;;;;;8.60;5.72;;;;;;;0.87;79.07;97176.84;13116633;22;20027;-77
2021/01/07 06:24:01;;;;;;;8.60;5.72;;;;;;;0.75;79.37;97176.41;13139533;22;20027;-76
2021/01/07 06:29:21;;;;;;;9.35;6.78;;;;;;;0.69;79.32;97184.09;13116576;22;20054;-76
2021/01/07 06:34:44;;;;;;;8.30;5.75;;;;;;;0.69;79.47;97178.59;13116642;22;20050;-77
2021/01/07 06:40:11;;;;;;;6.97;5.70;;;;;;;0.71;79.21;97178.03;13116607;22;20027;-77
2021/01/07 06:45:31;;;;;;;12.00;8.40;;;;;;;0.72;79.17;97190.50;13136323;22;20065;-77
2021/01/07 06:50:55;;;;;;;14.25;9.00;;;;;;;0.74;79.65;97202.41;13116032;22;20030;-76
2021/01/07 06:56:19;;;;;;;13.57;9.23;;;;;;;0.78;79.25;97200.06;13117659;22;20033;-77
2021/01/07 07:01:53;;;;;;;10.63;7.28;;;;;;;0.86;79.19;97203.56;13143104;22;20031;-76
2021/01/07 07:07:18;;;;;;;12.83;6.90;;;;;;;0.85;78.83;97204.09;13121106;22;20031;-76
2021/01/07 07:12:39;;;;;;;7.70;5.60;;;;;;;0.85;79.46;97209.59;13142775;22;20188;-77
2021/01/07 07:17:59;;;;;;;9.20;6.50;;;;;;;0.83;79.15;97214.91;13098389;22;20076;-76
2021/01/07 07:23:23;;;;;;;8.00;5.80;;;;;;;0.77;79.07;97215.09;13119750;22;20026;-76
2021/01/07 07:28:44;;;;;;;6.63;5.05;;;;;;;0.83;78.77;97218.41;13119825;22;20030;-77
2021/01/07 07:34:04;;;;;;;6.15;4.82;;;;;;;1.00;78.31;97215.19;13120541;22;20480;-76
2021/01/07 07:39:27;;;;;;;8.73;5.40;;;;;;;0.98;78.76;97219.75;13118898;22;20515;-77
2021/01/07 07:44:47;;;;;;;7.05;5.35;;;;;;;1.03;78.55;97229.84;13118901;22;20027;-76
2021/01/07 07:50:08;;;;;;;7.45;5.72;;;;;;;1.11;78.68;97228.59;13142940;22;20051;-77
2021/01/07 07:55:34;;;;;;;6.78;5.90;;;;;;;1.36;78.07;97234.41;13118220;22;20033;-77
2021/01/07 08:00:55;;;;;;;6.57;5.30;;;;;;;1.44;78.29;97248.16;13098070;22;20033;-77
2021/01/07 08:06:19;;;;;;;6.53;5.50;;;;;;;1.40;77.17;97250.53;13141572;22;20026;-77
2021/01/07 08:11:49;;;;;;;7.93;6.10;;;;;;;1.47;78.23;97258.09;13120260;22;20027;-77
2021/01/07 08:17:09;;;;;;;7.70;5.57;;;;;;;1.51;77.18;97254.97;13118900;22;20027;-77
2021/01/07 08:22:29;;;;;;;7.22;5.55;;;;;;;1.49;77.33;97254.78;13117652;22;20027;-78
2021/01/07 08:27:49;;;;;;;6.05;5.05;;;;;;;1.39;76.97;97258.06;13118761;22;20076;-78
2021/01/07 08:33:36;;;;;;;5.95;5.10;;;;;;;1.32;77.23;97247.75;13086448;22;20019;-80
2021/01/07 08:38:56;;;;;;;7.18;4.70;;;;;;;1.44;77.20;97261.91;13095886;22;20071;-78
2021/01/07 08:44:17;;;;;;;6.20;4.95;;;;;;;1.46;76.71;97266.88;13117490;22;20061;-78
2021/01/07 08:49:36;;;;;;;5.72;5.00;;;;;;;1.49;77.67;97268.53;13093981;22;20027;-76
2021/01/07 08:54:56;;;;;;;6.90;5.63;;;;;;;1.47;77.67;97273.84;13138811;22;20477;-76
2021/01/07 09:00:20;;;;;;;7.20;4.95;;;;;;;1.72;77.97;97277.59;13118701;22;20022;-78
2021/01/07 09:05:40;;;;;;;5.47;4.82;;;;;;;1.81;76.85;97282.56;13096209;22;20125;-78
2021/01/07 09:11:06;;;;;;;6.45;5.32;;;;;;;1.90;77.25;97295.81;13094946;22;20094;-75
2021/01/07 09:16:26;;;;;;;6.68;5.07;;;;;;;1.97;76.78;97303.34;13115879;22;20350;-76
2021/01/07 09:21:46;;;;;;;5.70;4.40;;;;;;;2.05;76.49;97302.63;13140941;22;20027;-75
2021/01/07 09:27:15;;;;;;;5.82;4.60;;;;;;;2.02;76.75;97304.44;13141129;22;20072;-76
2021/01/07 09:32:34;;;;;;;6.03;4.20;;;;;;;2.05;77.09;97314.38;13074697;22;20050;-76
2021/01/07 09:37:55;;;;;;;5.30;3.78;;;;;;;2.19;76.74;97303.94;13139938;22;20341;-75
2021/01/07 09:43:14;;;;;;;6.43;4.47;;;;;;;2.41;76.36;97305.97;13117116;22;20026;-75
2021/01/07 09:48:34;;;;;;;6.38;4.85;;;;;;;2.62;76.48;97302.31;13116267;22;20053;-75
2021/01/07 09:53:53;;;;;;;6.53;5.78;;;;;;;2.79;75.66;97307.97;13093066;22;20027;-75
2021/01/07 09:59:14;;;;;;;8.70;6.30;;;;;;;2.75;75.94;97294.56;13075803;22;20027;-77
2021/01/07 10:04:34;;;;;;;7.68;5.47;;;;;;;2.68;74.32;97294.59;13050600;22;20342;-77
2021/01/07 10:09:54;;;;;;;5.88;4.90;;;;;;;2.67;75.07;97295.88;13073327;22;20027;-78
2021/01/07 10:15:14;;;;;;;5.95;4.22;;;;;;;2.63;74.67;97293.50;13073207;22;20464;-77
2021/01/07 10:20:34;;;;;;;6.63;4.03;;;;;;;2.77;74.42;97288.50;13072355;22;20028;-78
2021/01/07 10:25:58;;;;;;;8.18;5.07;;;;;;;2.62;74.64;97297.53;13051887;22;20023;-74
2021/01/07 10:31:18;;;;;;;6.35;5.07;;;;;;;2.64;74.57;97294.22;13077230;22;20034;-75
2021/01/07 10:36:38;;;;;;;5.28;4.22;;;;;;;2.81;73.06;97297.16;13077197;22;20051;-75
2021/01/07 10:41:58;;;;;;;6.45;4.53;;;;;;;2.53;70.99;97293.31;13054516;22;20027;-76
2021/01/07 10:47:19;;;;;;;6.55;5.03;;;;;;;2.30;73.75;97306.31;13032782;22;20023;-77
2021/01/07 10:53:15;;;;;;;10.15;5.20;;;;;;;2.24;72.26;97289.25;13056257;22;20090;-76
2021/01/07 10:59:00;;;;;;;5.07;4.00;;;;;;;2.21;73.54;97285.56;13058746;22;20101;-75
2021/01/07 11:04:48;;;;;;;4.60;3.90;;;;;;;2.28;73.60;97287.59;13120559;22;20030;-74
2021/01/07 11:10:08;;;;;;;4.80;4.10;;;;;;;2.12;72.98;97280.59;13077415;22;20042;-77
2021/01/07 11:15:29;;;;;;;5.25;4.30;;;;;;;1.94;72.38;97287.19;13118378;22;20033;-78
2021/01/07 11:20:49;;;;;;;5.75;3.88;;;;;;;1.68;73.19;97269.69;13075699;22;20022;-76
2021/01/07 11:26:09;;;;;;;5.18;4.35;;;;;;;1.57;73.85;97274.81;13117951;22;20034;-76
2021/01/07 11:31:29;;;;;;;6.35;4.88;;;;;;;1.44;73.31;97273.63;13098586;22;20022;-75
2021/01/07 11:37:00;;;;;;;6.25;4.97;;;;;;;1.42;73.75;97273.47;13119230;22;20098;-75
2021/01/07 11:42:37;;;;;;;6.13;4.60;;;;;;;1.52;73.87;97273.69;13098935;22;20102;-75
2021/01/07 11:48:05;;;;;;;6.40;5.38;;;;;;;1.56;74.23;97262.34;13121545;22;20460;-75
2021/01/07 11:53:27;;;;;;;6.88;5.78;;;;;;;1.50;74.51;97259.00;13121366;22;20029;-74
2021/01/07 11:58:49;;;;;;;8.80;6.33;;;;;;;1.51;74.37;97252.22;13130808;22;20027;-74
2021/01/07 12:04:12;;;;;;;11.52;7.47;;;;;;;1.53;74.29;97261.38;13119243;22;20802;-74
2021/01/07 12:09:38;;;;;;;8.68;7.53;;;;;;;1.54;73.54;97256.63;13120198;22;20057;-74
2021/01/07 12:14:59;;;;;;;10.32;7.88;;;;;;;1.49;74.17;97250.03;13099588;22;20076;-74
2021/01/07 12:20:22;;;;;;;9.07;7.38;;;;;;;1.45;74.13;97249.66;13075639;22;20455;-74
2021/01/07 12:25:42;;;;;;;10.73;7.78;;;;;;;1.40;74.14;97243.03;13120600;22;20031;-74
2021/01/07 12:31:03;;;;;;;10.93;7.93;;;;;;;1.32;73.96;97247.03;13143226;22;20030;-74
2021/01/07 12:36:40;;;;;;;11.80;7.97;;;;;;;1.36;74.30;97242.66;13097815;22;20388;-74
2021/01/07 12:42:03;;;;;;;10.60;8.68;;;;;;;1.47;74.44;97249.09;13119771;22;20382;-74
2021/01/07 12:47:23;;;;;;;10.65;7.95;;;;;;;1.44;74.57;97243.38;13117728;22;20031;-76
2021/01/07 12:52:43;;;;;;;11.48;8.55;;;;;;;1.46;73.96;97233.88;13072413;22;20111;-76
2021/01/07 12:58:17;;;;;;;10.70;8.32;;;;;;;1.51;74.53;97241.94;13130584;22;20425;-76
2021/01/07 13:04:06;;;;;;;11.60;7.83;;;;;;;1.48;73.76;97251.31;13118144;22;20249;-77
2021/01/07 13:09:30;;;;;;;10.48;7.35;;;;;;;1.49;73.35;97250.03;13095170;22;20104;-76
2021/01/07 13:14:50;;;;;;;9.57;7.40;;;;;;;1.56;73.51;97254.09;13074469;22;20486;-76
2021/01/07 13:20:12;;;;;;;14.40;7.80;;;;;;;1.46;73.50;97264.13;13096843;22;20464;-76
2021/01/07 13:25:32;;;;;;;11.27;7.95;;;;;;;1.37;73.65;97252.38;13140618;22;20034;-75
2021/01/07 13:30:55;;;;;;;10.57;7.80;;;;;;;1.46;73.21;97255.88;13140090;22;20097;-78
2021/01/07 13:36:18;;;;;;;10.27;7.50;;;;;;;1.54;73.49;97264.88;13123773;22;20428;-77
2021/01/07 13:41:38;;;;;;;10.68;7.43;;;;;;;1.54;73.97;97268.34;13126124;22;20097;-81
2021/01/07 13:46:58;;;;;;;9.13;6.95;;;;;;;1.59;73.57;97269.50;13072107;22;20102;-76
2021/01/07 13:52:19;;;;;;;10.10;7.20;;;;;;;1.70;74.31;97269.88;13097092;22;20121;-75
2021/01/07 13:57:42;;;;;;;9.65;7.28;;;;;;;1.87;73.18;97269.38;13091165;22;20031;-77
2021/01/07 14:03:04;;;;;;;10.88;8.35;;;;;;;1.98;73.70;97271.03;13042023;22;20458;-79
2021/01/07 14:08:28;;;;;;;13.95;8.60;;;;;;;2.00;72.60;97285.00;13059434;22;20027;-77
2021/01/07 14:13:48;;;;;;;11.93;9.48;;;;;;;1.99;72.97;97281.50;13081293;22;20034;-79
2021/01/07 14:19:08;;;;;;;13.07;9.90;;;;;;;2.00;73.33;97280.22;13060516;22;20027;-78
2021/01/07 14:24:28;;;;;;;11.95;8.30;;;;;;;2.07;73.40;97294.56;13057266;22;20028;-75
2021/01/07 14:29:50;;;;;;;13.18;8.98;;;;;;;2.04;73.53;97295.66;13037024;22;20304;-74
2021/01/07 14:35:12;;;;;;;12.73;9.63;;;;;;;1.87;72.98;97291.41;13013660;22;20058;-76
2021/01/07 14:40:32;;;;;;;13.90;10.30;;;;;;;1.67;73.77;97295.75;13080266;22;20096;-78
2021/01/07 14:45:52;;;;;;;14.32;10.20;;;;;;;1.53;73.88;97301.91;13055675;22;20523;-77
2021/01/07 14:51:16;;;;;;;16.17;10.82;;;;;;;1.47;74.02;97293.09;13042664;22;20094;-81
2021/01/07 14:56:41;;;;;;;14.52;11.15;;;;;;;1.41;74.17;97288.50;13063142;22;20327;-81
2021/01/07 15:02:03;;;;;;;;;;;;;;;1.31;73.80;97286.81;13100116;22;20027;-81
2021/01/07 15:08:00;;;;;;;17.75;12.77;;;;;;;1.20;74.13;97290.59;13106072;22;19938;-81
2021/01/07 15:13:24;;;;;;;17.38;12.18;;;;;;;1.10;74.26;97279.38;13060693;22;20023;-81
2021/01/07 15:19:04;;;;;;;21.42;12.63;;;;;;;1.13;74.18;97285.78;13047866;22;20353;-77
2021/01/07 15:24:56;;;;;;;15.82;11.05;;;;;;;1.09;74.33;97296.41;13057261;22;20506;-78
2021/01/07 15:30:17;;;;;;;17.20;11.25;;;;;;;0.96;74.58;97293.75;13034176;22;20069;-78
2021/01/07 15:36:05;;;;;;;17.77;10.63;;;;;;;0.95;74.21;97297.78;13012901;22;20034;-77
2021/01/07 15:47:26;;;;;;;17.70;12.40;;;;;;;0.85;74.99;97292.78;13061061;22;20492;-77
2021/01/07 15:53:20;;;;;;;20.30;12.80;;;;;;;0.86;75.38;97296.25;13056443;22;20061;-78
2021/01/07 15:58:45;;;;;;;17.48;11.93;;;;;;;0.83;74.94;97292.59;13082554;22;20027;-78
2021/01/07 16:04:12;;;;;;;19.75;12.80;;;;;;;0.80;75.14;97288.19;13090882;22;20034;-80
2021/01/07 16:09:32;;;;;;;20.15;12.23;;;;;;;0.79;74.51;97288.72;13072491;22;20027;-80
2021/01/07 16:14:58;;;;;;;18.55;13.25;;;;;;;0.79;75.02;97297.69;13076166;22;20051;-78
2021/01/07 16:20:18;;;;;;;21.88;13.07;;;;;;;0.81;75.03;97310.91;13056278;22;20357;-77
2021/01/07 16:25:49;;;;;;;17.98;12.80;;;;;;;0.80;75.30;97290.19;13055408;22;20114;-79
2021/01/07 16:31:09;;;;;;;19.13;13.38;;;;;;;0.68;75.65;97308.97;13053490;22;20057;-77
2021/01/07 16:36:28;;;;;;;16.77;12.02;;;;;;;0.59;75.38;97309.47;13030680;22;20031;-75
2021/01/07 16:41:48;;;;;;;20.58;13.75;;;;;;;0.56;76.00;97307.78;13077526;22;20465;-73
2021/01/07 16:47:08;;;;;;;18.25;12.90;;;;;;;0.53;76.25;97308.84;13074588;22;20086;-75
2021/01/07 16:52:28;;;;;;;19.48;13.10;;;;;;;0.54;76.54;97305.56;13077092;22;20035;-78
2021/01/07 16:57:49;;;;;;;18.33;12.80;;;;;;;0.53;76.33;97300.63;13075733;22;20051;-75
2021/01/07 17:03:09;;;;;;;19.15;13.25;;;;;;;0.56;76.04;97303.00;13074364;22;20027;-75
2021/01/07 17:08:30;;;;;;;17.88;12.13;;;;;;;0.54;75.61;97304.84;13051626;22;20050;-76
2021/01/07 17:13:50;;;;;;;20.33;13.68;;;;;;;0.50;76.27;97304.44;13063651;22;20027;-75
2021/01/07 17:19:09;;;;;;;19.08;13.10;;;;;;;0.53;75.98;97292.38;13073924;22;20054;-75
2021/01/07 17:24:29;;;;;;;17.67;12.50;;;;;;;0.51;76.14;97311.41;13074251;22;20058;-74
2021/01/07 17:29:50;;;;;;;18.52;13.18;;;;;;;0.45;76.19;97303.28;13008821;22;20023;-75
2021/01/07 17:35:10;;;;;;;21.02;14.95;;;;;;;0.55;75.87;97301.53;13052884;22;20095;-75
2021/01/07 17:40:30;;;;;;;23.30;15.85;;;;;;;0.63;76.07;97301.59;13073688;22;20398;-78
2021/01/07 17:45:50;;;;;;;23.40;15.55;;;;;;;0.71;75.97;97307.91;13073730;22;20027;-79
2021/01/07 17:51:10;;;;;;;22.55;15.43;;;;;;;0.69;75.68;97312.47;13055297;22;20102;-79
2021/01/07 17:56:31;;;;;;;20.88;14.10;;;;;;;0.71;75.98;97307.91;13079343;22;20126;-81
2021/01/07 18:01:51;;;;;;;21.30;14.10;;;;;;;0.70;75.91;97311.19;13056637;22;20034;-77
2021/01/07 18:07:11;;;;;;;21.52;13.65;;;;;;;0.70;76.12;97311.91;13073337;22;20031;-77
2021/01/07 18:12:33;;;;;;;20.42;13.88;;;;;;;0.80;75.88;97312.16;13067104;22;20098;-78
2021/01/07 18:17:53;;;;;;;18.50;13.18;;;;;;;0.82;75.84;97302.09;13115313;22;20027;-78
2021/01/07 18:23:13;;;;;;;19.45;13.15;;;;;;;0.83;75.98;97306.31;13117351;22;20023;-77
2021/01/07 18:28:33;;;;;;;18.38;13.05;;;;;;;0.76;75.71;97314.50;13141404;22;20466;-81
2021/01/07 18:33:52;;;;;;;20.90;14.65;;;;;;;0.70;76.25;97322.91;13119363;22;20097;-79
2021/01/07 18:39:13;;;;;;;20.77;14.02;;;;;;;0.65;76.30;97312.78;13114657;22;20051;-77
2021/01/07 18:44:32;;;;;;;21.23;15.02;;;;;;;0.65;76.29;97315.53;13117178;22;20068;-78
2021/01/07 18:49:52;;;;;;;19.73;13.55;;;;;;;0.69;76.24;97321.44;13094456;22;20027;-77
2021/01/07 18:55:12;;;;;;;20.60;14.38;;;;;;;0.77;76.49;97322.25;13129214;22;20023;-79
2021/01/07 19:00:33;;;;;;;22.13;16.00;;;;;;;0.78;76.53;97323.72;13121276;22;20026;-74
2021/01/07 19:05:53;;;;;;;20.83;15.02;;;;;;;0.78;76.22;97315.47;13096719;22;20398;-75
2021/01/07 19:11:13;;;;;;;28.05;18.50;;;;;;;0.83;75.63;97320.06;13097700;22;20023;-72
2021/01/07 19:16:33;;;;;;;25.80;17.60;;;;;;;0.78;76.17;97320.97;13120308;22;20349;-72
2021/01/07 19:21:57;;;;;;;22.73;15.75;;;;;;;0.80;76.37;97315.66;13097215;22;20023;-72
2021/01/07 19:27:17;;;;;;;22.80;15.75;;;;;;;0.80;76.06;97321.16;13140863;22;20431;-72
2021/01/07 19:32:36;;;;;;;20.77;14.60;;;;;;;0.75;76.29;97322.00;13117768;22;20026;-72
2021/01/07 19:37:56;;;;;;;20.27;14.85;;;;;;;0.75;76.42;97311.03;13095908;22;20105;-72
2021/01/07 19:43:16;;;;;;;21.27;13.98;;;;;;;0.72;76.30;97312.13;13096296;22;20027;-73
2021/01/07 19:48:36;;;;;;;21.90;15.48;;;;;;;0.68;76.62;97308.97;13095780;22;20031;-71
2021/01/07 19:53:56;;;;;;;22.00;15.23;;;;;;;0.70;76.37;97313.94;13096031;22;20046;-74
2021/01/07 19:59:16;;;;;;;21.50;15.38;;;;;;;0.67;76.16;97312.25;13093450;22;20088;-71
2021/01/07 20:04:36;;;;;;;21.80;15.20;;;;;;;0.67;76.34;97325.97;13115314;22;20480;-72
2021/01/07 20:09:56;;;;;;;25.48;15.60;;;;;;;0.73;77.05;97329.34;13073646;22;20046;-73
2021/01/07 20:15:16;;;;;;;24.58;16.00;;;;;;;0.75;76.40;97326.78;13078258;22;20354;-72
2021/01/07 20:20:37;;;;;;;22.90;15.48;;;;;;;0.77;76.47;97316.75;13052304;22;20050;-73
2021/01/07 20:25:57;;;;;;;22.73;15.50;;;;;;;0.76;76.31;97325.50;13094940;22;20026;-73
2021/01/07 20:31:16;;;;;;;22.30;15.52;;;;;;;0.78;76.07;97328.47;13095166;22;20026;-74
2021/01/07 20:36:41;;;;;;;22.27;15.45;;;;;;;0.76;76.22;97328.97;13074663;22;20027;-74
2021/01/07 20:42:01;;;;;;;23.30;15.60;;;;;;;0.75;76.25;97327.50;13096166;22;20101;-74
2021/01/07 20:47:21;;;;;;;21.83;15.32;;;;;;;0.69;75.96;97326.94;13074100;22;20027;-74
2021/01/07 20:52:41;;;;;;;22.83;15.50;;;;;;;0.66;76.20;97321.75;13096073;22;20093;-76
2021/01/07 20:58:01;;;;;;;22.13;15.73;;;;;;;0.65;76.20;97332.00;13141162;22;20033;-76
2021/01/07 21:03:21;;;;;;;22.40;14.80;;;;;;;0.60;76.26;97323.94;13117642;22;20352;-76
2021/01/07 21:08:42;;;;;;;23.27;15.20;;;;;;;0.61;76.27;97323.38;13073574;22;20027;-76
2021/01/07 21:14:02;;;;;;;23.10;15.48;;;;;;;0.66;76.21;97321.75;13105570;22;20105;-76
2021/01/07 21:19:22;;;;;;;21.88;14.98;;;;;;;0.66;76.50;97332.75;13117401;22;20174;-76
2021/01/07 21:24:42;;;;;;;26.13;16.55;;;;;;;0.65;76.31;97321.03;13118926;22;20444;-76
2021/01/07 21:30:04;;;;;;;25.73;16.52;;;;;;;0.68;76.77;97333.72;13074992;22;20030;-76
2021/01/07 21:35:24;;;;;;;22.35;15.95;;;;;;;0.69;76.64;97326.19;13096487;22;20111;-76
2021/01/07 21:40:44;;;;;;;22.40;14.85;;;;;;;0.65;76.84;97326.53;13096694;22;20061;-76
2021/01/07 21:46:04;;;;;;;18.65;13.77;;;;;;;0.66;76.50;97317.00;13138809;22;20342;-76
2021/01/07 21:51:23;;;;;;;20.65;13.98;;;;;;;0.63;76.79;97322.84;13074371;22;20098;-77
2021/01/07 21:56:53;;;;;;;19.25;13.85;;;;;;;0.55;76.72;97317.28;13117991;22;20026;-76
2021/01/07 22:02:14;;;;;;;18.25;13.05;;;;;;;0.44;76.84;97323.78;13138758;22;20097;-76
2021/01/07 22:07:34;;;;;;;20.52;13.63;;;;;;;0.44;76.85;97315.56;13117082;22;20099;-76
2021/01/07 22:12:54;;;;;;;17.65;12.75;;;;;;;0.39;76.80;97326.69;13110818;22;20484;-76
2021/01/07 22:18:13;;;;;;;17.75;12.82;;;;;;;0.36;76.86;97322.25;13140165;22;20107;-76
2021/01/07 22:23:33;;;;;;;19.05;12.38;;;;;;;0.38;76.92;97325.19;13096580;22;20330;-76
2021/01/07 22:28:53;;;;;;;17.38;12.93;;;;;;;0.23;77.16;97320.31;13099199;22;20443;-76
2021/01/07 22:34:13;;;;;;;18.52;12.70;;;;;;;0.23;76.94;97331.31;13099989;22;20093;-76
2021/01/07 22:39:33;;;;;;;21.27;13.07;;;;;;;0.18;77.42;97319.16;13057161;22;20334;-76
2021/01/07 22:44:54;;;;;;;15.30;11.60;;;;;;;0.26;77.15;97316.50;13078368;22;20057;-76
2021/01/07 22:50:13;;;;;;;16.13;11.35;;;;;;;0.27;76.75;97318.69;13143582;22;20081;-76
2021/01/07 22:55:34;;;;;;;15.38;10.98;;;;;;;0.25;76.91;97313.00;13143379;22;20098;-76
2021/01/07 23:00:54;;;;;;;15.38;10.77;;;;;;;0.26;76.75;97322.72;13143538;22;20464;-76
2021/01/07 23:06:26;;;;;;;15.73;11.23;;;;;;;0.22;76.43;97302.38;13143250;22;20050;-76
2021/01/07 23:11:50;;;;;;;;;;;;;;;0.10;76.67;97307.41;13120397;22;20027;-76
2021/01/07 23:17:10;;;;;;;14.85;10.10;;;;;;;0.03;77.13;97305.31;13099294;22;19915;-76
2021/01/07 23:22:30;;;;;;;15.48;10.65;;;;;;;-0.06;76.71;97294.78;13098410;22;20026;-76
2021/01/07 23:27:50;;;;;;;15.77;10.45;;;;;;;-0.03;76.90;97293.72;13076342;22;20097;-76
2021/01/07 23:33:10;;;;;;;16.48;10.52;;;;;;;-0.05;76.57;97296.25;13076369;22;20457;-76
2021/01/07 23:38:30;;;;;;;14.80;9.50;;;;;;;-0.11;76.53;97284.66;13097081;22;20103;-76
2021/01/07 23:43:50;;;;;;;14.10;9.50;;;;;;;-0.21;76.65;97284.38;13076072;22;20089;-76
2021/01/07 23:49:10;;;;;;;15.75;10.32;;;;;;;-0.30;77.31;97288.31;13098046;22;20026;-76
2021/01/07 23:54:30;;;;;;;15.00;9.65;;;;;;;-0.30;76.82;97282.84;13075548;22;20072;-76
2021/01/07 23:59:51;;;;;;;17.42;10.90;;;;;;;-0.28;77.19;97285.06;13077046;22;20052;-76
